Orlando, Florida
Current Conditions -  °F | °C
As of 12:57 PM on Saturday 22 Nov 2014 (Local Time) from KORL Reporting Station
Overcast Overcast  
Wind Chill: 21°   Ceiling: 1200
Heat Index: 21°   Visibility: 8mi
Dew Point: 19°   Wind: 10mph
Humidity: 93%   Direction: 80°E
Pressure: 30.22"   Gusts: NA
Location:  28.54°N, 81.38°W
Report Text: KORL 221757Z 08009KT 8SM BKN012 BKN019 OVC034 21/19 A3022 RMK AO2 T02060194
Loading
Personal Weather Stations






























Interactive Weather Map New forecast layout! Learn more

10-Day Weather Forecast

Advertisements
Track Severe Weather on mobile